createdAt,value
2018-07-24T00:05:48.109Z,9.1
2018-07-24T00:11:43.103Z,9.98
2018-07-24T00:17:38.114Z,9.56
2018-07-24T00:23:33.150Z,10.72
2018-07-24T00:29:28.121Z,9.77
2018-07-24T00:35:23.120Z,10.83
2018-07-24T00:41:18.128Z,11.98
2018-07-24T00:47:13.194Z,12.94
2018-07-24T00:53:08.119Z,10.43
2018-07-24T00:59:03.143Z,10.84
2018-07-24T01:04:58.136Z,14.11
2018-07-24T01:10:53.141Z,12.33
2018-07-24T01:16:48.165Z,10.6
2018-07-24T01:22:43.148Z,11.45
2018-07-24T01:28:38.172Z,13.82
2018-07-24T01:34:33.216Z,11.77
2018-07-24T01:40:28.164Z,12.19
2018-07-24T01:46:23.217Z,11.02
2018-07-24T01:52:18.202Z,11.83
2018-07-24T01:58:13.187Z,12.51
2018-07-24T02:04:08.175Z,11.45
2018-07-24T02:10:03.173Z,10.78
2018-07-24T02:15:58.205Z,11.64
2018-07-24T02:21:53.264Z,14.14
2018-07-24T02:27:48.218Z,12.29
2018-07-24T02:33:43.193Z,11.46
2018-07-24T02:39:38.234Z,10.89
2018-07-24T02:45:33.199Z,11.73
2018-07-24T02:51:28.228Z,11.23
2018-07-24T02:57:23.286Z,10.91
2018-07-24T03:03:18.233Z,11.5
2018-07-24T03:09:13.203Z,12.82
2018-07-24T03:15:08.273Z,12.23
2018-07-24T03:21:03.237Z,8.99
2018-07-24T03:26:58.254Z,10.92
2018-07-24T03:32:53.245Z,11.22
2018-07-24T03:38:48.274Z,12.38
2018-07-24T03:44:43.287Z,10.43
2018-07-24T03:50:38.251Z,14.63
2018-07-24T03:56:33.291Z,11.27
2018-07-24T04:02:28.357Z,11.05
2018-07-24T04:08:23.294Z,11.91
2018-07-24T04:14:18.281Z,10.24
2018-07-24T04:20:13.250Z,10.59
2018-07-24T04:26:08.273Z,10.96
2018-07-24T04:32:03.268Z,9.99
2018-07-24T04:37:58.267Z,11.66
2018-07-24T04:43:53.278Z,8.72
2018-07-24T04:49:48.325Z,10.31
2018-07-24T04:55:43.288Z,8
2018-07-24T05:01:38.293Z,9.6
2018-07-24T05:07:33.303Z,11.11
2018-07-24T05:13:28.304Z,9.97
2018-07-24T05:19:23.294Z,11.74
2018-07-24T05:25:18.289Z,8.8
2018-07-24T05:31:13.323Z,9.4
2018-07-24T05:37:08.331Z,15.25
2018-07-24T05:43:03.333Z,11.63
2018-07-24T05:48:58.352Z,15.59
2018-07-24T05:54:53.340Z,13.74
2018-07-24T06:00:48.393Z,12.46
2018-07-24T06:06:43.358Z,17.28
2018-07-24T06:12:38.328Z,33.13
